sensor_id;sensor_type;location;lat;lon;timestamp;pressure;altitude;pressure_sealevel;temperature;humidity
33191;BME280;19554;42.652;23.364;2022-09-23T00:01:27;94815.38;;;11.57;60.05
33191;BME280;19554;42.652;23.364;2022-09-23T00:03:53;94824.53;;;11.51;60.41
33191;BME280;19554;42.652;23.364;2022-09-23T00:06:22;94833.00;;;11.39;60.74
33191;BME280;19554;42.652;23.364;2022-09-23T00:08:49;94819.00;;;11.24;61.34
33191;BME280;19554;42.652;23.364;2022-09-23T00:11:17;94818.00;;;11.20;61.34
33191;BME280;19554;42.652;23.364;2022-09-23T00:13:44;94821.19;;;11.22;61.42
33191;BME280;19554;42.652;23.364;2022-09-23T00:16:18;94822.34;;;11.15;61.40
33191;BME280;19554;42.652;23.364;2022-09-23T00:18:44;94817.44;;;11.23;61.31
33191;BME280;19554;42.652;23.364;2022-09-23T00:21:12;94787.72;;;11.05;60.98
33191;BME280;19554;42.652;23.364;2022-09-23T00:23:38;94815.94;;;11.35;60.37
33191;BME280;19554;42.652;23.364;2022-09-23T00:26:06;94826.22;;;11.47;59.94
33191;BME280;19554;42.652;23.364;2022-09-23T00:28:34;94808.63;;;11.41;59.19
33191;BME280;19554;42.652;23.364;2022-09-23T00:31:10;94809.59;;;11.50;59.02
33191;BME280;19554;42.652;23.364;2022-09-23T00:33:37;94826.41;;;11.32;60.34
33191;BME280;19554;42.652;23.364;2022-09-23T00:36:04;94824.09;;;11.01;61.33
33191;BME280;19554;42.652;23.364;2022-09-23T00:38:31;94825.28;;;10.90;61.49
33191;BME280;19554;42.652;23.364;2022-09-23T00:40:58;94796.69;;;10.66;62.14
33191;BME280;19554;42.652;23.364;2022-09-23T00:43:47;94820.38;;;10.73;62.08
33191;BME280;19554;42.652;23.364;2022-09-23T00:46:27;94816.31;;;10.81;61.87
33191;BME280;19554;42.652;23.364;2022-09-23T00:49:03;94820.50;;;10.87;61.38
33191;BME280;19554;42.652;23.364;2022-09-23T00:51:35;94822.34;;;10.91;60.54
33191;BME280;19554;42.652;23.364;2022-09-23T00:54:03;94790.75;;;10.75;59.91
33191;BME280;19554;42.652;23.364;2022-09-23T00:56:31;94827.13;;;10.95;60.57
33191;BME280;19554;42.652;23.364;2022-09-23T00:58:57;94826.31;;;10.94;60.70
33191;BME280;19554;42.652;23.364;2022-09-23T01:01:24;94827.34;;;10.98;60.77
33191;BME280;19554;42.652;23.364;2022-09-23T01:03:50;94816.78;;;10.88;60.72
33191;BME280;19554;42.652;23.364;2022-09-23T01:06:16;94805.63;;;10.81;60.45
33191;BME280;19554;42.652;23.364;2022-09-23T01:08:43;94825.84;;;10.87;59.69
33191;BME280;19554;42.652;23.364;2022-09-23T01:11:36;94822.09;;;10.64;61.08
33191;BME280;19554;42.652;23.364;2022-09-23T01:14:28;94825.53;;;10.35;62.07
33191;BME280;19554;42.652;23.364;2022-09-23T01:31:00;94823.53;;;10.51;59.83
33191;BME280;19554;42.652;23.364;2022-09-23T01:36:17;94834.13;;;10.61;59.06
33191;BME280;19554;42.652;23.364;2022-09-23T01:38:59;94831.38;;;10.66;58.89
33191;BME280;19554;42.652;23.364;2022-09-23T01:41:42;94836.16;;;10.70;58.72
33191;BME280;19554;42.652;23.364;2022-09-23T01:44:10;94832.94;;;10.73;58.32
33191;BME280;19554;42.652;23.364;2022-09-23T01:46:46;94823.66;;;10.65;58.69
33191;BME280;19554;42.652;23.364;2022-09-23T01:49:33;94832.94;;;10.73;58.38
33191;BME280;19554;42.652;23.364;2022-09-23T01:52:11;94837.22;;;10.74;57.73
33191;BME280;19554;42.652;23.364;2022-09-23T01:54:47;94835.59;;;10.73;57.48
33191;BME280;19554;42.652;23.364;2022-09-23T01:57:21;94839.34;;;10.72;57.39
33191;BME280;19554;42.652;23.364;2022-09-23T01:59:52;94840.47;;;10.65;57.24
33191;BME280;19554;42.652;23.364;2022-09-23T02:02:28;94831.16;;;10.63;57.42
33191;BME280;19554;42.652;23.364;2022-09-23T02:05:12;94829.91;;;10.55;56.91
33191;BME280;19554;42.652;23.364;2022-09-23T02:07:44;94819.88;;;10.42;57.74
33191;BME280;19554;42.652;23.364;2022-09-23T02:10:35;94827.41;;;10.35;57.06
33191;BME280;19554;42.652;23.364;2022-09-23T02:13:17;94803.06;;;10.07;57.51
33191;BME280;19554;42.652;23.364;2022-09-23T02:15:51;94833.34;;;10.21;57.88
33191;BME280;19554;42.652;23.364;2022-09-23T02:18:21;94823.00;;;10.15;57.80
33191;BME280;19554;42.652;23.364;2022-09-23T02:20:51;94823.06;;;10.10;57.47
33191;BME280;19554;42.652;23.364;2022-09-23T02:23:31;94827.59;;;10.09;57.70
33191;BME280;19554;42.652;23.364;2022-09-23T02:28:54;94824.41;;;10.07;58.73
33191;BME280;19554;42.652;23.364;2022-09-23T02:33:55;94802.69;;;9.90;58.98
33191;BME280;19554;42.652;23.364;2022-09-23T02:36:29;94814.75;;;9.77;60.98
33191;BME280;19554;42.652;23.364;2022-09-23T02:38:59;94811.91;;;9.68;61.43
33191;BME280;19554;42.652;23.364;2022-09-23T02:41:46;94812.50;;;9.55;62.36
33191;BME280;19554;42.652;23.364;2022-09-23T02:44:17;94829.53;;;9.59;62.96
33191;BME280;19554;42.652;23.364;2022-09-23T02:46:44;94818.06;;;9.59;62.64
33191;BME280;19554;42.652;23.364;2022-09-23T02:49:18;94842.19;;;9.78;61.62
33191;BME280;19554;42.652;23.364;2022-09-23T02:51:45;94805.06;;;9.52;61.63
33191;BME280;19554;42.652;23.364;2022-09-23T02:54:14;94845.41;;;9.80;61.60
33191;BME280;19554;42.652;23.364;2022-09-23T02:56:41;94818.31;;;9.62;61.55
33191;BME280;19554;42.652;23.364;2022-09-23T02:59:08;94822.50;;;9.73;61.17
33191;BME280;19554;42.652;23.364;2022-09-23T03:07:09;94837.88;;;9.92;60.88
33191;BME280;19554;42.652;23.364;2022-09-23T03:10:00;94834.34;;;9.96;60.16
33191;BME280;19554;42.652;23.364;2022-09-23T03:12:41;94852.72;;;10.03;60.20
33191;BME280;19554;42.652;23.364;2022-09-23T03:15:22;94852.66;;;10.08;60.27
33191;BME280;19554;42.652;23.364;2022-09-23T03:17:57;94846.28;;;10.09;60.19
33191;BME280;19554;42.652;23.364;2022-09-23T03:20:35;94842.81;;;10.09;59.13
33191;BME280;19554;42.652;23.364;2022-09-23T03:23:06;94849.00;;;9.99;59.24
33191;BME280;19554;42.652;23.364;2022-09-23T03:25:36;94828.63;;;9.79;59.43
33191;BME280;19554;42.652;23.364;2022-09-23T03:28:04;94815.13;;;9.60;59.51
33191;BME280;19554;42.652;23.364;2022-09-23T03:30:33;94852.88;;;9.78;59.89
33191;BME280;19554;42.652;23.364;2022-09-23T03:33:04;94828.44;;;9.65;60.08
33191;BME280;19554;42.652;23.364;2022-09-23T03:35:33;94840.63;;;9.77;60.23
33191;BME280;19554;42.652;23.364;2022-09-23T03:38:22;94844.44;;;9.65;61.30
33191;BME280;19554;42.652;23.364;2022-09-23T03:40:51;94828.78;;;9.48;61.18
33191;BME280;19554;42.652;23.364;2022-09-23T03:43:19;94813.16;;;9.32;61.58
33191;BME280;19554;42.652;23.364;2022-09-23T03:45:45;94827.00;;;9.34;61.61
33191;BME280;19554;42.652;23.364;2022-09-23T03:48:11;94844.56;;;9.35;62.14
33191;BME280;19554;42.652;23.364;2022-09-23T03:50:39;94840.34;;;9.29;61.95
33191;BME280;19554;42.652;23.364;2022-09-23T03:53:05;94840.91;;;9.15;62.09
33191;BME280;19554;42.652;23.364;2022-09-23T03:55:31;94851.53;;;9.25;62.63
33191;BME280;19554;42.652;23.364;2022-09-23T03:57:56;94838.84;;;9.07;61.62
33191;BME280;19554;42.652;23.364;2022-09-23T04:00:23;94854.75;;;9.22;59.41
33191;BME280;19554;42.652;23.364;2022-09-23T04:02:48;94863.22;;;9.30;58.96
33191;BME280;19554;42.652;23.364;2022-09-23T04:05:14;94838.75;;;9.22;59.93
33191;BME280;19554;42.652;23.364;2022-09-23T04:07:39;94868.00;;;9.38;60.08
33191;BME280;19554;42.652;23.364;2022-09-23T04:10:06;94871.75;;;9.37;60.62
33191;BME280;19554;42.652;23.364;2022-09-23T04:12:31;94854.22;;;9.20;58.86
33191;BME280;19554;42.652;23.364;2022-09-23T04:14:57;94877.13;;;9.21;59.51
33191;BME280;19554;42.652;23.364;2022-09-23T04:17:22;94853.28;;;8.86;60.00
33191;BME280;19554;42.652;23.364;2022-09-23T04:19:47;94860.16;;;8.97;60.98
33191;BME280;19554;42.652;23.364;2022-09-23T04:22:13;94869.72;;;8.98;61.77
33191;BME280;19554;42.652;23.364;2022-09-23T04:24:38;94883.59;;;9.00;62.03
33191;BME280;19554;42.652;23.364;2022-09-23T04:27:04;94870.81;;;8.92;62.43
33191;BME280;19554;42.652;23.364;2022-09-23T04:29:30;94887.03;;;9.00;62.15
33191;BME280;19554;42.652;23.364;2022-09-23T04:31:55;94858.59;;;8.96;60.63
33191;BME280;19554;42.652;23.364;2022-09-23T04:34:22;94889.38;;;9.22;60.20
33191;BME280;19554;42.652;23.364;2022-09-23T04:36:47;94860.63;;;9.14;59.44
33191;BME280;19554;42.652;23.364;2022-09-23T04:39:14;94890.41;;;9.37;58.46
33191;BME280;19554;42.652;23.364;2022-09-23T04:41:40;94893.31;;;9.40;58.46
33191;BME280;19554;42.652;23.364;2022-09-23T04:44:06;94888.75;;;9.46;59.58
33191;BME280;19554;42.652;23.364;2022-09-23T04:46:32;94899.41;;;9.46;59.26
33191;BME280;19554;42.652;23.364;2022-09-23T04:48:58;94899.94;;;9.43;58.48
33191;BME280;19554;42.652;23.364;2022-09-23T04:51:25;94906.34;;;9.42;57.51
33191;BME280;19554;42.652;23.364;2022-09-23T04:53:51;94898.91;;;9.39;58.12
33191;BME280;19554;42.652;23.364;2022-09-23T04:56:26;94902.09;;;9.41;58.42
33191;BME280;19554;42.652;23.364;2022-09-23T04:58:52;94902.63;;;9.38;58.15
33191;BME280;19554;42.652;23.364;2022-09-23T05:01:21;94910.84;;;9.46;57.81
33191;BME280;19554;42.652;23.364;2022-09-23T05:03:49;94913.81;;;9.45;58.02
33191;BME280;19554;42.652;23.364;2022-09-23T05:06:16;94882.41;;;9.32;58.24
33191;BME280;19554;42.652;23.364;2022-09-23T05:08:48;94907.91;;;9.53;59.33
33191;BME280;19554;42.652;23.364;2022-09-23T05:11:14;94900.19;;;9.52;58.60
33191;BME280;19554;42.652;23.364;2022-09-23T05:13:40;94902.25;;;9.65;58.51
33191;BME280;19554;42.652;23.364;2022-09-23T05:16:07;94904.03;;;9.80;58.69
33191;BME280;19554;42.652;23.364;2022-09-23T05:18:34;94910.06;;;10.01;58.98
33191;BME280;19554;42.652;23.364;2022-09-23T05:21:01;94890.06;;;9.98;58.80
33191;BME280;19554;42.652;23.364;2022-09-23T05:23:27;94909.13;;;10.20;59.01
33191;BME280;19554;42.652;23.364;2022-09-23T05:25:57;94902.09;;;10.40;58.93
33191;BME280;19554;42.652;23.364;2022-09-23T05:28:24;94909.31;;;10.68;58.53
33191;BME280;19554;42.652;23.364;2022-09-23T05:30:50;94909.00;;;10.75;58.85
33191;BME280;19554;42.652;23.364;2022-09-23T05:33:15;94920.00;;;10.68;60.42
33191;BME280;19554;42.652;23.364;2022-09-23T05:35:46;94898.31;;;10.46;61.60
33191;BME280;19554;42.652;23.364;2022-09-23T05:38:11;94915.00;;;10.62;61.35
33191;BME280;19554;42.652;23.364;2022-09-23T05:40:37;94900.88;;;10.56;61.49
33191;BME280;19554;42.652;23.364;2022-09-23T05:43:02;94913.56;;;10.75;61.90
33191;BME280;19554;42.652;23.364;2022-09-23T05:45:27;94908.13;;;10.85;61.94
33191;BME280;19554;42.652;23.364;2022-09-23T05:47:53;94887.69;;;10.99;60.45
33191;BME280;19554;42.652;23.364;2022-09-23T05:50:19;94907.97;;;11.48;59.73
33191;BME280;19554;42.652;23.364;2022-09-23T05:52:44;94897.31;;;11.91;58.27
33191;BME280;19554;42.652;23.364;2022-09-23T05:55:10;94902.81;;;12.19;57.67
33191;BME280;19554;42.652;23.364;2022-09-23T05:57:35;94829.25;;;11.78;55.82
33191;BME280;19554;42.652;23.364;2022-09-23T06:00:01;94887.41;;;12.29;55.23
33191;BME280;19554;42.652;23.364;2022-09-23T06:02:27;94894.47;;;12.58;54.80
33191;BME280;19554;42.652;23.364;2022-09-23T06:04:52;94898.66;;;12.78;53.95
33191;BME280;19554;42.652;23.364;2022-09-23T06:07:18;94892.91;;;12.71;53.61
33191;BME280;19554;42.652;23.364;2022-09-23T06:09:43;94886.00;;;12.84;53.05
33191;BME280;19554;42.652;23.364;2022-09-23T06:12:09;94894.66;;;12.94;53.04
33191;BME280;19554;42.652;23.364;2022-09-23T06:14:35;94854.41;;;12.67;52.67
33191;BME280;19554;42.652;23.364;2022-09-23T06:17:01;94892.06;;;12.56;53.55
33191;BME280;19554;42.652;23.364;2022-09-23T06:19:26;94890.31;;;12.66;53.29
33191;BME280;19554;42.652;23.364;2022-09-23T06:21:51;94866.28;;;12.61;53.01
33191;BME280;19554;42.652;23.364;2022-09-23T06:24:17;94891.22;;;12.75;53.02
33191;BME280;19554;42.652;23.364;2022-09-23T06:26:42;94856.19;;;12.71;52.53
33191;BME280;19554;42.652;23.364;2022-09-23T06:29:09;94894.25;;;13.34;51.65
33191;BME280;19554;42.652;23.364;2022-09-23T06:31:39;94890.06;;;13.41;50.78
33191;BME280;19554;42.652;23.364;2022-09-23T06:34:11;94891.25;;;13.63;50.65
33191;BME280;19554;42.652;23.364;2022-09-23T06:36:37;94843.19;;;13.39;49.97
33191;BME280;19554;42.652;23.364;2022-09-23T06:39:02;94874.16;;;13.59;49.95
33191;BME280;19554;42.652;23.364;2022-09-23T06:41:28;94881.41;;;13.72;50.05
33191;BME280;19554;42.652;23.364;2022-09-23T06:43:54;94859.22;;;13.80;49.70
33191;BME280;19554;42.652;23.364;2022-09-23T06:46:19;94891.53;;;14.11;48.81
33191;BME280;19554;42.652;23.364;2022-09-23T06:48:45;94867.19;;;13.85;49.05
33191;BME280;19554;42.652;23.364;2022-09-23T06:51:12;94879.53;;;13.59;49.65
33191;BME280;19554;42.652;23.364;2022-09-23T06:53:44;94887.25;;;13.74;50.16
33191;BME280;19554;42.652;23.364;2022-09-23T06:56:09;94905.22;;;13.87;49.70
33191;BME280;19554;42.652;23.364;2022-09-23T06:58:35;94888.34;;;13.73;49.90
33191;BME280;19554;42.652;23.364;2022-09-23T07:01:07;94910.38;;;13.84;50.18
33191;BME280;19554;42.652;23.364;2022-09-23T07:03:34;94906.66;;;13.71;50.14
33191;BME280;19554;42.652;23.364;2022-09-23T07:06:00;94883.28;;;13.71;49.83
33191;BME280;19554;42.652;23.364;2022-09-23T07:08:27;94905.75;;;13.62;49.77
33191;BME280;19554;42.652;23.364;2022-09-23T07:10:57;94912.50;;;13.73;50.11
33191;BME280;19554;42.652;23.364;2022-09-23T07:13:24;94925.81;;;13.64;50.51
33191;BME280;19554;42.652;23.364;2022-09-23T07:15:55;94916.88;;;13.69;50.37
33191;BME280;19554;42.652;23.364;2022-09-23T07:18:23;94915.38;;;13.63;50.72
33191;BME280;19554;42.652;23.364;2022-09-23T07:20:50;94879.41;;;13.50;50.45
33191;BME280;19554;42.652;23.364;2022-09-23T07:23:16;94919.03;;;13.67;50.58
33191;BME280;19554;42.652;23.364;2022-09-23T07:25:45;94849.91;;;13.09;51.15
33191;BME280;19554;42.652;23.364;2022-09-23T07:28:16;94902.97;;;13.53;50.31
33191;BME280;19554;42.652;23.364;2022-09-23T07:30:42;94926.97;;;13.99;50.10
33191;BME280;19554;42.652;23.364;2022-09-23T07:33:09;94933.75;;;13.83;50.11
33191;BME280;19554;42.652;23.364;2022-09-23T07:35:38;94939.66;;;14.08;49.94
33191;BME280;19554;42.652;23.364;2022-09-23T07:38:05;94909.50;;;13.88;49.66
33191;BME280;19554;42.652;23.364;2022-09-23T07:40:30;94943.28;;;13.62;50.30
33191;BME280;19554;42.652;23.364;2022-09-23T07:42:55;94937.09;;;14.03;50.04
33191;BME280;19554;42.652;23.364;2022-09-23T07:45:21;94916.72;;;14.02;49.40
33191;BME280;19554;42.652;23.364;2022-09-23T07:47:47;94941.22;;;14.36;48.95
33191;BME280;19554;42.652;23.364;2022-09-23T07:50:14;94923.25;;;14.45;48.17
33191;BME280;19554;42.652;23.364;2022-09-23T07:52:39;94936.31;;;14.75;47.84
33191;BME280;19554;42.652;23.364;2022-09-23T07:55:05;94939.06;;;14.83;47.53
33191;BME280;19554;42.652;23.364;2022-09-23T07:57:31;94926.25;;;14.80;47.76
33191;BME280;19554;42.652;23.364;2022-09-23T07:59:57;94931.69;;;15.20;47.46
33191;BME280;19554;42.652;23.364;2022-09-23T08:02:23;94915.03;;;15.40;46.32
33191;BME280;19554;42.652;23.364;2022-09-23T08:04:49;94916.69;;;15.59;45.80
33191;BME280;19554;42.652;23.364;2022-09-23T08:07:14;94934.56;;;15.95;44.91
33191;BME280;19554;42.652;23.364;2022-09-23T08:09:41;94939.44;;;15.84;44.95
33191;BME280;19554;42.652;23.364;2022-09-23T08:12:12;94938.47;;;15.80;45.33
33191;BME280;19554;42.652;23.364;2022-09-23T08:14:40;94936.72;;;15.75;45.24
33191;BME280;19554;42.652;23.364;2022-09-23T08:17:05;94933.63;;;15.59;45.21
33191;BME280;19554;42.652;23.364;2022-09-23T08:19:30;94927.84;;;15.66;44.99
33191;BME280;19554;42.652;23.364;2022-09-23T08:21:56;94928.41;;;15.63;44.79
33191;BME280;19554;42.652;23.364;2022-09-23T08:24:23;94929.47;;;15.84;44.24
33191;BME280;19554;42.652;23.364;2022-09-23T08:26:52;94917.91;;;15.84;43.48
33191;BME280;19554;42.652;23.364;2022-09-23T08:29:20;94912.72;;;16.05;44.01
33191;BME280;19554;42.652;23.364;2022-09-23T08:31:47;94918.09;;;16.05;43.20
33191;BME280;19554;42.652;23.364;2022-09-23T08:34:14;94915.84;;;15.90;43.08
33191;BME280;19554;42.652;23.364;2022-09-23T08:36:39;94908.13;;;16.05;42.87
33191;BME280;19554;42.652;23.364;2022-09-23T08:39:05;94916.56;;;16.21;43.46
33191;BME280;19554;42.652;23.364;2022-09-23T08:44:30;94903.81;;;15.96;43.02
33191;BME280;19554;42.652;23.364;2022-09-23T08:47:07;94917.00;;;16.23;43.08
33191;BME280;19554;42.652;23.364;2022-09-23T08:49:40;94914.66;;;16.30;42.49
33191;BME280;19554;42.652;23.364;2022-09-23T08:52:21;94890.53;;;15.91;43.57
33191;BME280;19554;42.652;23.364;2022-09-23T08:54:48;94889.13;;;15.93;42.69
33191;BME280;19554;42.652;23.364;2022-09-23T08:57:47;94915.09;;;15.58;43.49
33191;BME280;19554;42.652;23.364;2022-09-23T09:00:18;94908.22;;;15.74;44.03
33191;BME280;19554;42.652;23.364;2022-09-23T09:02:44;94908.91;;;16.06;43.58
33191;BME280;19554;42.652;23.364;2022-09-23T09:05:11;94908.47;;;16.21;43.28
33191;BME280;19554;42.652;23.364;2022-09-23T09:07:39;94913.41;;;16.45;42.54
33191;BME280;19554;42.652;23.364;2022-09-23T09:13:13;94908.94;;;16.58;41.00
33191;BME280;19554;42.652;23.364;2022-09-23T09:15:48;94915.91;;;16.68;40.50
33191;BME280;19554;42.652;23.364;2022-09-23T09:18:16;94909.28;;;16.48;40.72
33191;BME280;19554;42.652;23.364;2022-09-23T09:23:33;94912.41;;;16.24;41.86
33191;BME280;19554;42.652;23.364;2022-09-23T09:26:01;94914.69;;;16.48;41.85
33191;BME280;19554;42.652;23.364;2022-09-23T09:33:46;94904.50;;;16.53;39.94
33191;BME280;19554;42.652;23.364;2022-09-23T09:38:50;94912.59;;;16.53;40.32
33191;BME280;19554;42.652;23.364;2022-09-23T09:41:17;94910.56;;;16.42;40.65
33191;BME280;19554;42.652;23.364;2022-09-23T09:43:46;94909.44;;;16.25;41.29
33191;BME280;19554;42.652;23.364;2022-09-23T09:46:49;94918.16;;;16.57;40.81
33191;BME280;19554;42.652;23.364;2022-09-23T09:51:48;94891.94;;;15.88;41.48
33191;BME280;19554;42.652;23.364;2022-09-23T09:54:22;94919.34;;;15.99;41.23
33191;BME280;19554;42.652;23.364;2022-09-23T09:56:49;94917.16;;;16.01;40.57
33191;BME280;19554;42.652;23.364;2022-09-23T09:59:18;94890.22;;;16.01;40.22
33191;BME280;19554;42.652;23.364;2022-09-23T10:01:49;94895.44;;;15.88;39.98
33191;BME280;19554;42.652;23.364;2022-09-23T10:04:21;94907.25;;;15.70;41.05
33191;BME280;19554;42.652;23.364;2022-09-23T10:07:11;94898.88;;;15.72;41.26
33191;BME280;19554;42.652;23.364;2022-09-23T10:09:39;94883.94;;;15.65;40.27
33191;BME280;19554;42.652;23.364;2022-09-23T10:12:20;94898.75;;;15.85;40.44
33191;BME280;19554;42.652;23.364;2022-09-23T10:14:48;94886.75;;;16.00;40.53
33191;BME280;19554;42.652;23.364;2022-09-23T10:17:34;94898.88;;;15.72;40.50
33191;BME280;19554;42.652;23.364;2022-09-23T10:20:13;94896.38;;;15.93;39.37
33191;BME280;19554;42.652;23.364;2022-09-23T10:22:40;94829.94;;;15.62;39.54
33191;BME280;19554;42.652;23.364;2022-09-23T10:25:08;94888.63;;;16.00;38.85
33191;BME280;19554;42.652;23.364;2022-09-23T10:27:35;94890.75;;;15.63;39.20
33191;BME280;19554;42.652;23.364;2022-09-23T10:30:04;94890.50;;;15.73;39.22
33191;BME280;19554;42.652;23.364;2022-09-23T10:32:34;94884.88;;;15.61;39.93
33191;BME280;19554;42.652;23.364;2022-09-23T10:40:17;94888.97;;;15.58;40.92
33191;BME280;19554;42.652;23.364;2022-09-23T10:56:46;94805.03;;;16.05;38.71
33191;BME280;19554;42.652;23.364;2022-09-23T10:59:42;94862.69;;;16.39;38.61
33191;BME280;19554;42.652;23.364;2022-09-23T11:07:21;94849.69;;;16.23;37.67
33191;BME280;19554;42.652;23.364;2022-09-23T11:12:38;94863.16;;;16.15;38.36
33191;BME280;19554;42.652;23.364;2022-09-23T11:15:41;94849.38;;;16.16;38.09
33191;BME280;19554;42.652;23.364;2022-09-23T11:21:29;94836.06;;;16.11;37.02
33191;BME280;19554;42.652;23.364;2022-09-23T11:24:47;94837.16;;;15.93;37.07
33191;BME280;19554;42.652;23.364;2022-09-23T11:30:00;94809.47;;;15.83;37.20
33191;BME280;19554;42.652;23.364;2022-09-23T11:35:44;94810.25;;;16.19;36.36
33191;BME280;19554;42.652;23.364;2022-09-23T11:38:28;94833.50;;;16.41;34.56
33191;BME280;19554;42.652;23.364;2022-09-23T11:41:19;94818.31;;;16.45;34.58
33191;BME280;19554;42.652;23.364;2022-09-23T11:43:49;94829.84;;;16.63;34.05
33191;BME280;19554;42.652;23.364;2022-09-23T11:48:50;94767.63;;;16.29;34.24
33191;BME280;19554;42.652;23.364;2022-09-23T11:51:25;94811.50;;;16.13;35.18
33191;BME280;19554;42.652;23.364;2022-09-23T11:54:07;94821.19;;;16.22;33.81
33191;BME280;19554;42.652;23.364;2022-09-23T11:56:38;94823.06;;;16.30;33.96
33191;BME280;19554;42.652;23.364;2022-09-23T12:01:56;94798.22;;;16.25;34.73
33191;BME280;19554;42.652;23.364;2022-09-23T12:04:38;94815.44;;;16.50;34.88
33191;BME280;19554;42.652;23.364;2022-09-23T12:12:16;94814.31;;;16.77;33.00
33191;BME280;19554;42.652;23.364;2022-09-23T12:28:03;94814.22;;;15.86;40.33
33191;BME280;19554;42.652;23.364;2022-09-23T12:30:33;94815.88;;;15.65;41.00
33191;BME280;19554;42.652;23.364;2022-09-23T12:33:21;94783.31;;;15.09;41.42
33191;BME280;19554;42.652;23.364;2022-09-23T12:35:49;94815.53;;;15.01;42.22
33191;BME280;19554;42.652;23.364;2022-09-23T12:40:49;94813.94;;;15.00;41.97
33191;BME280;19554;42.652;23.364;2022-09-23T12:43:27;94810.09;;;14.38;42.45
33191;BME280;19554;42.652;23.364;2022-09-23T12:45:54;94815.47;;;14.38;42.83
33191;BME280;19554;42.652;23.364;2022-09-23T12:51:20;94818.91;;;14.30;43.49
33191;BME280;19554;42.652;23.364;2022-09-23T13:01:20;94817.72;;;14.45;43.64
33191;BME280;19554;42.652;23.364;2022-09-23T13:03:52;94815.00;;;14.36;43.48
33191;BME280;19554;42.652;23.364;2022-09-23T13:06:48;94799.72;;;14.01;43.89
33191;BME280;19554;42.652;23.364;2022-09-23T13:09:24;94804.50;;;14.04;44.06
33191;BME280;19554;42.652;23.364;2022-09-23T13:11:51;94811.72;;;14.39;43.77
33191;BME280;19554;42.652;23.364;2022-09-23T13:14:20;94814.38;;;14.62;43.61
33191;BME280;19554;42.652;23.364;2022-09-23T13:16:47;94763.00;;;14.32;43.16
33191;BME280;19554;42.652;23.364;2022-09-23T13:26:51;94821.47;;;15.20;41.79
33191;BME280;19554;42.652;23.364;2022-09-23T13:29:39;94810.56;;;15.25;41.35
33191;BME280;19554;42.652;23.364;2022-09-23T13:32:12;94815.34;;;15.28;41.35
33191;BME280;19554;42.652;23.364;2022-09-23T13:34:40;94812.06;;;15.49;41.17
33191;BME280;19554;42.652;23.364;2022-09-23T13:37:29;94813.44;;;15.37;41.37
33191;BME280;19554;42.652;23.364;2022-09-23T13:40:07;94814.25;;;15.47;40.58
33191;BME280;19554;42.652;23.364;2022-09-23T13:42:34;94817.28;;;15.54;40.36
33191;BME280;19554;42.652;23.364;2022-09-23T13:45:02;94817.91;;;15.51;39.45
33191;BME280;19554;42.652;23.364;2022-09-23T13:47:29;94813.03;;;15.61;39.53
33191;BME280;19554;42.652;23.364;2022-09-23T13:49:55;94811.00;;;15.67;39.45
33191;BME280;19554;42.652;23.364;2022-09-23T13:52:28;94803.91;;;15.80;39.49
33191;BME280;19554;42.652;23.364;2022-09-23T13:54:55;94787.59;;;15.85;39.15
33191;BME280;19554;42.652;23.364;2022-09-23T13:57:29;94791.06;;;16.03;39.27
33191;BME280;19554;42.652;23.364;2022-09-23T13:59:59;94805.50;;;16.24;39.17
33191;BME280;19554;42.652;23.364;2022-09-23T14:02:26;94800.59;;;16.09;39.44
33191;BME280;19554;42.652;23.364;2022-09-23T14:04:56;94794.25;;;16.05;39.64
33191;BME280;19554;42.652;23.364;2022-09-23T14:07:22;94788.25;;;16.08;39.67
33191;BME280;19554;42.652;23.364;2022-09-23T14:09:50;94770.66;;;16.02;39.49
33191;BME280;19554;42.652;23.364;2022-09-23T14:12:16;94713.94;;;15.46;39.61
33191;BME280;19554;42.652;23.364;2022-09-23T14:14:47;94791.06;;;15.85;40.08
33191;BME280;19554;42.652;23.364;2022-09-23T14:17:17;94777.31;;;15.87;39.86
33191;BME280;19554;42.652;23.364;2022-09-23T14:19:43;94756.03;;;15.51;40.48
33191;BME280;19554;42.652;23.364;2022-09-23T14:22:24;94790.72;;;15.61;40.79
33191;BME280;19554;42.652;23.364;2022-09-23T14:24:51;94789.06;;;15.25;41.50
33191;BME280;19554;42.652;23.364;2022-09-23T14:27:29;94736.31;;;14.98;41.55
33191;BME280;19554;42.652;23.364;2022-09-23T14:29:55;94775.16;;;15.40;41.32
33191;BME280;19554;42.652;23.364;2022-09-23T14:32:23;94773.28;;;15.50;41.32
33191;BME280;19554;42.652;23.364;2022-09-23T14:37:55;94781.53;;;15.62;39.39
33191;BME280;19554;42.652;23.364;2022-09-23T14:40:56;94784.00;;;15.32;39.36
33191;BME280;19554;42.652;23.364;2022-09-23T14:43:58;94779.72;;;15.31;40.09
33191;BME280;19554;42.652;23.364;2022-09-23T14:46:35;94775.78;;;15.37;40.08
33191;BME280;19554;42.652;23.364;2022-09-23T14:49:14;94747.44;;;15.23;39.40
33191;BME280;19554;42.652;23.364;2022-09-23T14:51:47;94777.88;;;15.49;39.12
33191;BME280;19554;42.652;23.364;2022-09-23T14:56:51;94749.63;;;15.12;39.24
33191;BME280;19554;42.652;23.364;2022-09-23T14:59:27;94772.94;;;15.34;39.30
33191;BME280;19554;42.652;23.364;2022-09-23T15:01:53;94752.38;;;15.29;39.38
33191;BME280;19554;42.652;23.364;2022-09-23T15:09:38;94779.47;;;15.59;40.12
33191;BME280;19554;42.652;23.364;2022-09-23T15:12:15;94780.56;;;15.58;39.67
33191;BME280;19554;42.652;23.364;2022-09-23T15:14:48;94767.22;;;15.18;40.11
33191;BME280;19554;42.652;23.364;2022-09-23T15:17:33;94762.75;;;15.05;40.24
33191;BME280;19554;42.652;23.364;2022-09-23T15:20:03;94783.81;;;15.20;41.06
33191;BME280;19554;42.652;23.364;2022-09-23T15:22:29;94785.88;;;15.23;40.58
33191;BME280;19554;42.652;23.364;2022-09-23T15:25:17;94794.66;;;14.98;41.60
33191;BME280;19554;42.652;23.364;2022-09-23T15:27:55;94760.06;;;14.65;42.45
33191;BME280;19554;42.652;23.364;2022-09-23T15:30:21;94790.75;;;14.73;42.94